createdAt,value
2022-10-09T00:00:49.007Z,87.59
2022-10-09T00:01:49.357Z,87.59
2022-10-09T00:02:50.017Z,87.49
2022-10-09T00:03:53.790Z,87.38
2022-10-09T00:04:50.346Z,87.18
2022-10-09T00:05:50.582Z,86.88
2022-10-09T00:06:51.682Z,87.08
2022-10-09T00:07:51.179Z,87.79
2022-10-09T00:08:55.248Z,87.49
2022-10-09T00:09:51.731Z,87.18
2022-10-09T00:10:52.028Z,87.29
2022-10-09T00:11:52.363Z,87.49
2022-10-09T00:12:52.666Z,87.18
2022-10-09T00:13:52.986Z,87.69
2022-10-09T00:14:53.309Z,86.88
2022-10-09T00:15:53.668Z,87.29
2022-10-09T00:16:53.913Z,87.69
2022-10-09T00:17:54.145Z,87.18
2022-10-09T00:18:54.487Z,88.00
2022-10-09T00:19:54.842Z,87.08
2022-10-09T00:20:55.034Z,86.88
2022-10-09T00:21:59.169Z,86.68
2022-10-09T00:22:55.637Z,87.08
2022-10-09T00:23:55.965Z,87.49
2022-10-09T00:24:56.335Z,86.88
2022-10-09T00:25:56.547Z,86.57
2022-10-09T00:26:56.851Z,86.47
2022-10-09T00:27:57.171Z,87.29
2022-10-09T00:28:57.537Z,87.79
2022-10-09T00:29:57.802Z,87.08
2022-10-09T00:30:58.189Z,87.29
2022-10-09T00:31:58.430Z,86.88
2022-10-09T00:32:58.753Z,86.98
2022-10-09T00:33:59.052Z,86.98
2022-10-09T00:34:59.373Z,86.47
2022-10-09T00:35:59.575Z,87.29
2022-10-09T00:36:59.897Z,86.88
2022-10-09T00:38:00.205Z,86.68
2022-10-09T00:39:00.499Z,86.88
2022-10-09T00:40:04.558Z,86.68
2022-10-09T00:41:04.901Z,87.59
2022-10-09T00:42:01.389Z,86.57
2022-10-09T00:43:01.750Z,87.38
2022-10-09T00:44:01.967Z,87.08
2022-10-09T00:45:06.145Z,87.02
2022-10-09T00:46:04.323Z,87.12
2022-10-09T00:47:02.741Z,87.02
2022-10-09T00:48:03.064Z,87.02
2022-10-09T00:49:03.409Z,87.02
2022-10-09T00:50:03.597Z,87.63
2022-10-09T00:51:03.915Z,87.02
2022-10-09T00:52:04.265Z,86.61
2022-10-09T02:56:12.335Z,87.26
2022-10-09T02:57:12.593Z,86.85
2022-10-09T02:58:12.856Z,86.82
2022-10-09T02:59:13.110Z,87.06
2022-10-09T03:00:13.362Z,87.37
2022-10-09T03:01:13.621Z,86.96
2022-10-09T03:02:14.071Z,86.96
2022-10-09T03:03:14.112Z,87.37
2022-10-09T03:04:14.337Z,87.37
2022-10-09T03:05:14.665Z,88.08
2022-10-09T03:06:15.021Z,87.67
2022-10-09T03:07:15.259Z,87.47
2022-10-09T03:08:15.504Z,87.47
2022-10-09T03:09:15.717Z,87.77
2022-10-09T03:10:16.056Z,87.57
2022-10-09T03:11:16.390Z,87.47
2022-10-09T03:12:16.724Z,87.77
2022-10-09T03:13:17.072Z,87.88
2022-10-09T03:14:17.281Z,88.29
2022-10-09T03:15:17.594Z,87.88
2022-10-09T03:16:17.957Z,88.08
2022-10-09T03:17:18.192Z,88.18
2022-10-09T03:18:18.555Z,88.29
2022-10-09T03:19:18.754Z,88.18
2022-10-09T03:20:18.991Z,88.39
2022-10-09T03:21:19.310Z,88.29
2022-10-09T03:22:19.649Z,88.18
2022-10-09T03:23:20.016Z,88.49
2022-10-09T03:24:20.225Z,88.79
2022-10-09T03:25:20.559Z,89.92
2022-10-09T03:26:22.612Z,89.11
2022-10-09T03:27:21.026Z,88.59
2022-10-09T03:28:21.368Z,89.00
2022-10-09T03:29:21.603Z,89.00
2022-10-09T03:30:21.967Z,89.11
2022-10-09T03:31:46.869Z,89.41
2022-10-09T03:32:23.557Z,89.31
2022-10-09T03:33:22.737Z,89.11
2022-10-09T03:34:23.055Z,89.65
2022-10-09T03:35:23.424Z,89.65
2022-10-09T03:36:23.631Z,89.56
2022-10-09T03:37:23.957Z,89.45
2022-10-09T03:38:24.281Z,89.65
2022-10-09T03:39:24.613Z,89.86
2022-10-09T03:40:24.947Z,89.97
2022-10-09T03:41:25.281Z,89.97
2022-10-09T03:42:25.561Z,90.17
2022-10-09T03:43:25.808Z,89.97
2022-10-09T03:44:27.795Z,90.06
2022-10-09T03:45:30.195Z,90.17
2022-10-09T03:46:26.594Z,90.37
2022-10-09T03:47:26.890Z,90.58
2022-10-09T03:48:27.095Z,91.19
2022-10-09T03:49:29.203Z,90.27
2022-10-09T03:50:27.747Z,90.27
2022-10-09T03:51:28.065Z,90.47
2022-10-09T03:52:28.424Z,90.17
2022-10-09T03:53:28.627Z,90.47
2022-10-09T03:54:28.931Z,90.47
2022-10-09T03:55:29.264Z,90.37
2022-10-09T03:56:29.583Z,91.29
2022-10-09T03:57:29.943Z,90.68
2022-10-09T03:58:30.162Z,90.78
2022-10-09T03:59:30.518Z,90.68
2022-10-09T04:00:30.822Z,90.37
2022-10-09T04:01:30.981Z,90.27
2022-10-09T04:02:31.269Z,90.47
2022-10-09T04:03:31.524Z,90.88
2022-10-09T04:04:31.736Z,91.19
2022-10-09T04:05:32.043Z,91.09
2022-10-09T04:06:32.407Z,90.99
2022-10-09T04:07:32.620Z,90.58
2022-10-09T04:08:32.954Z,90.99
2022-10-09T04:09:34.070Z,91.09
2022-10-09T04:10:33.606Z,90.99
2022-10-09T04:11:33.820Z,90.88
2022-10-09T04:12:34.143Z,90.78
2022-10-09T04:13:34.487Z,90.88
2022-10-09T04:14:34.811Z,90.88
2022-10-09T04:15:35.179Z,91.19
2022-10-09T04:16:35.510Z,90.99
2022-10-09T04:17:35.661Z,91.23
2022-10-09T04:18:35.869Z,91.13
2022-10-09T04:19:36.212Z,91.19
2022-10-09T04:20:36.431Z,91.19
2022-10-09T04:21:36.764Z,91.03
2022-10-09T04:22:37.114Z,91.54
2022-10-09T04:23:37.357Z,91.23
2022-10-09T04:24:37.606Z,91.33
2022-10-09T04:25:37.813Z,91.33
2022-10-09T04:26:39.890Z,91.54
2022-10-09T04:27:38.386Z,91.74
2022-10-09T04:28:38.654Z,91.44
2022-10-09T04:29:38.887Z,91.44
2022-10-09T04:30:39.210Z,91.54
2022-10-09T04:31:39.604Z,91.74
2022-10-09T04:32:39.812Z,92.05
2022-10-09T04:33:40.156Z,91.44
2022-10-09T04:34:40.379Z,91.64
2022-10-09T04:35:40.597Z,91.64
2022-10-09T04:36:40.940Z,91.64
2022-10-09T04:37:41.179Z,91.54
2022-10-09T04:38:41.398Z,91.54
2022-10-09T04:39:41.752Z,91.54
2022-10-09T04:40:42.740Z,91.95
2022-10-09T04:41:42.272Z,91.74
2022-10-09T04:42:42.498Z,91.95
2022-10-09T04:43:42.834Z,91.64
2022-10-09T04:44:43.158Z,91.85
2022-10-09T04:45:43.548Z,92.05
2022-10-09T04:46:43.801Z,91.85
2022-10-09T04:47:44.123Z,91.64
2022-10-09T04:48:44.469Z,91.74
2022-10-09T04:49:44.806Z,91.85
2022-10-09T04:50:45.181Z,91.64
2022-10-09T04:51:45.389Z,91.64
2022-10-09T04:52:45.924Z,91.74
2022-10-09T04:53:46.044Z,91.58
2022-10-09T04:54:46.401Z,91.69
2022-10-09T04:55:46.628Z,91.99
2022-10-09T04:56:46.955Z,91.99
2022-10-09T04:57:47.270Z,92.30
2022-10-09T04:58:47.595Z,92.10
2022-10-09T04:59:47.964Z,92.10
2022-10-09T05:00:48.201Z,92.10
2022-10-09T05:01:48.487Z,91.99
2022-10-09T05:02:49.007Z,92.19
2022-10-09T05:03:48.927Z,91.99
2022-10-09T05:04:49.290Z,91.99
2022-10-09T05:05:49.504Z,92.30
2022-10-09T05:06:49.827Z,91.89
2022-10-09T05:07:50.151Z,92.30
2022-10-09T05:08:50.482Z,91.78
2022-10-09T05:09:50.843Z,91.69
2022-10-09T05:10:51.044Z,91.69
2022-10-09T05:11:51.370Z,91.69
2022-10-09T05:12:51.842Z,91.38
2022-10-09T05:13:51.958Z,91.58
2022-10-09T05:14:52.322Z,91.38
2022-10-09T05:15:52.564Z,91.89
2022-10-09T05:17:12.382Z,91.89
2022-10-09T05:17:54.089Z,91.83
2022-10-09T05:18:53.354Z,91.69
2022-10-09T05:19:53.673Z,91.69
2022-10-09T05:20:54.853Z,91.52
2022-10-09T05:21:54.219Z,91.93
2022-10-09T05:22:54.564Z,91.93
2022-10-09T05:23:54.918Z,91.63
2022-10-09T05:24:55.142Z,91.63
2022-10-09T05:25:55.459Z,91.93
2022-10-09T05:26:55.772Z,92.03
2022-10-09T05:27:56.112Z,91.63
2022-10-09T05:28:56.480Z,91.52
2022-10-09T05:29:56.684Z,91.93
2022-10-09T05:30:57.028Z,91.52
2022-10-09T05:31:57.436Z,91.31
2022-10-09T05:32:57.650Z,91.52
2022-10-09T05:33:57.988Z,91.52
2022-10-09T05:34:58.206Z,91.63
2022-10-09T05:35:58.421Z,91.22
2022-10-09T05:36:58.758Z,91.42
2022-10-09T05:37:59.097Z,91.63
2022-10-09T05:38:59.451Z,91.73
2022-10-09T05:39:59.669Z,91.63
2022-10-09T05:41:00.028Z,91.42
2022-10-09T05:42:00.267Z,91.31
2022-10-09T05:43:00.491Z,91.73
2022-10-09T05:44:00.712Z,91.42
2022-10-09T05:45:02.745Z,91.52
2022-10-09T05:46:01.214Z,91.42
2022-10-09T05:47:01.446Z,91.22
2022-10-09T05:48:01.780Z,91.22
2022-10-09T05:49:02.109Z,91.42
2022-10-09T05:50:02.464Z,91.22
2022-10-09T05:51:02.672Z,91.42
2022-10-09T05:52:03.035Z,91.42
2022-10-09T05:53:03.238Z,91.22
2022-10-09T05:54:03.558Z,91.11
2022-10-09T05:55:03.890Z,91.52
2022-10-09T05:56:04.231Z,91.31
2022-10-09T05:57:04.593Z,90.81
2022-10-09T05:58:04.802Z,90.81
2022-10-09T05:59:08.990Z,90.81
2022-10-09T06:00:05.383Z,90.70
2022-10-09T06:01:05.671Z,90.81
2022-10-09T06:02:06.771Z,90.81
2022-10-09T06:03:06.198Z,90.91
2022-10-09T06:04:06.431Z,90.70
2022-10-09T06:05:06.767Z,90.50
2022-10-09T06:06:07.104Z,90.39
2022-10-09T06:07:11.122Z,89.98
2022-10-09T06:08:07.630Z,90.60
2022-10-09T06:09:07.991Z,90.19
2022-10-09T06:10:08.193Z,89.98
2022-10-09T06:11:08.533Z,90.09
2022-10-09T06:12:08.749Z,89.84
2022-10-09T06:13:09.128Z,89.98
2022-10-09T06:14:09.348Z,90.15
2022-10-09T06:15:09.577Z,90.05
2022-10-09T06:16:10.096Z,90.05
2022-10-09T06:17:10.178Z,89.98
2022-10-09T06:18:10.440Z,89.94
2022-10-09T06:19:10.658Z,89.94
2022-10-09T06:20:10.987Z,90.05
2022-10-09T06:21:11.330Z,89.74
2022-10-09T06:22:11.665Z,89.94
2022-10-09T06:23:12.034Z,90.19
2022-10-09T06:24:12.246Z,90.39
2022-10-09T06:25:16.411Z,90.45
2022-10-09T06:26:12.915Z,90.15
2022-10-09T06:27:13.153Z,90.25
2022-10-09T06:28:17.374Z,90.15
2022-10-09T06:29:13.785Z,90.25
2022-10-09T06:30:14.123Z,89.94
2022-10-09T06:31:14.411Z,90.56
2022-10-09T06:32:14.650Z,89.94
2022-10-09T06:33:15.004Z,90.05
2022-10-09T06:34:15.217Z,90.05
2022-10-09T06:35:15.542Z,89.80
2022-10-09T06:36:15.849Z,89.59
2022-10-09T06:37:16.219Z,89.59
2022-10-09T06:38:20.338Z,89.59
2022-10-09T06:39:16.709Z,89.39
2022-10-09T06:40:17.033Z,89.29
2022-10-09T06:41:17.369Z,89.39
2022-10-09T06:42:17.641Z,89.18
2022-10-09T06:43:18.089Z,89.29
2022-10-09T06:44:18.079Z,89.29
2022-10-09T06:45:18.430Z,89.29
2022-10-09T06:46:18.696Z,88.98
2022-10-09T06:47:20.757Z,88.88
2022-10-09T06:48:19.210Z,88.84
2022-10-09T06:49:19.436Z,88.84
2022-10-09T06:50:19.777Z,88.84
2022-10-09T06:51:20.121Z,89.15
2022-10-09T06:52:20.461Z,88.84
2022-10-09T06:53:20.698Z,89.15
2022-10-09T06:54:20.966Z,88.84
2022-10-09T06:55:24.054Z,88.43
2022-10-09T06:56:22.511Z,88.29
2022-10-09T06:57:21.811Z,88.18
2022-10-09T06:58:22.824Z,87.98
2022-10-09T06:59:24.056Z,88.29
2022-10-09T07:00:22.676Z,87.88
2022-10-09T07:01:22.919Z,87.67
2022-10-09T07:02:23.210Z,88.18
2022-10-09T07:03:23.462Z,88.04
2022-10-09T07:04:23.815Z,87.32
2022-10-09T07:05:24.050Z,87.23
2022-10-09T07:06:24.382Z,86.98
2022-10-09T07:07:24.712Z,86.47
2022-10-09T07:08:25.045Z,86.88
2022-10-09T07:09:25.409Z,85.82
2022-10-09T07:10:25.617Z,85.82
2022-10-09T07:11:25.945Z,85.61
2022-10-09T07:12:26.259Z,85.61
2022-10-09T07:13:26.585Z,84.86
2022-10-09T07:14:27.778Z,85.47
2022-10-09T07:15:27.196Z,84.96
2022-10-09T07:16:27.578Z,84.66
2022-10-09T07:17:28.474Z,84.31
2022-10-09T07:18:28.025Z,84.41
2022-10-09T07:19:28.245Z,84.51
2022-10-09T07:20:28.587Z,83.49
2022-10-09T07:21:28.923Z,83.35
2022-10-09T07:22:29.290Z,83.35
2022-10-09T07:23:31.317Z,83.35
2022-10-09T07:24:29.745Z,83.04
2022-10-09T07:25:30.065Z,83.21
2022-10-09T07:26:30.379Z,83.11
2022-10-09T07:27:30.727Z,82.29
2022-10-09T07:28:34.742Z,82.09
2022-10-09T07:29:31.194Z,82.46
2022-10-09T07:30:31.533Z,82.26
2022-10-09T07:31:31.857Z,81.95
2022-10-09T07:32:32.220Z,81.24
2022-10-09T07:33:32.433Z,81.54
2022-10-09T07:34:32.767Z,81.54
2022-10-09T07:35:33.091Z,82.01
2022-10-09T07:36:33.429Z,81.91
2022-10-09T07:37:33.793Z,81.51
2022-10-09T07:38:34.012Z,81.30
2022-10-09T07:39:34.340Z,81.10
2022-10-09T07:40:34.681Z,80.79
2022-10-09T07:41:35.013Z,81.10
2022-10-09T07:42:35.377Z,80.38
2022-10-09T07:43:35.610Z,80.79
2022-10-09T07:44:35.817Z,80.35
2022-10-09T07:45:36.924Z,80.55
2022-10-09T07:46:36.564Z,80.04
2022-10-09T07:47:36.703Z,80.31
2022-10-09T07:48:36.936Z,80.41
2022-10-09T07:49:37.210Z,79.19
2022-10-09T07:50:37.423Z,80.00
2022-10-09T07:51:37.799Z,79.50
2022-10-09T07:52:38.030Z,79.19
2022-10-09T07:53:38.238Z,78.85
2022-10-09T07:54:38.577Z,79.16
2022-10-09T07:55:38.797Z,78.99
2022-10-09T07:56:39.153Z,78.89
2022-10-09T07:57:39.386Z,78.89
2022-10-09T07:58:39.600Z,79.39
2022-10-09T07:59:39.928Z,79.29
2022-10-09T08:00:44.122Z,80.00
2022-10-09T08:01:40.538Z,79.50
2022-10-09T08:02:40.789Z,79.09
2022-10-09T08:03:41.033Z,79.46
2022-10-09T08:04:41.336Z,80.07
2022-10-09T08:05:41.659Z,78.34
2022-10-09T08:06:41.992Z,79.22
2022-10-09T08:07:42.217Z,78.71
2022-10-09T08:08:42.425Z,78.00
2022-10-09T08:09:42.783Z,78.20
2022-10-09T08:10:42.987Z,78.37
2022-10-09T08:11:43.300Z,77.86
2022-10-09T08:12:43.594Z,77.42
2022-10-09T08:13:44.667Z,77.12
2022-10-09T08:14:44.205Z,77.72
2022-10-09T08:15:44.469Z,76.87
2022-10-09T08:16:44.719Z,76.43
2022-10-09T08:17:45.059Z,76.33
2022-10-09T08:18:45.390Z,75.38
2022-10-09T08:19:45.740Z,74.68
2022-10-09T08:20:45.946Z,74.95
2022-10-09T08:21:46.161Z,73.83
2022-10-09T08:22:46.887Z,72.78
2022-10-09T08:23:46.748Z,72.48
2022-10-09T08:24:47.032Z,73.09
2022-10-09T08:25:47.232Z,71.88
2022-10-09T08:26:47.569Z,72.65
2022-10-09T08:27:47.824Z,71.94
2022-10-09T08:28:48.144Z,72.51
2022-10-09T08:29:48.321Z,72.17
2022-10-09T08:30:48.605Z,71.73
2022-10-09T08:31:48.824Z,70.89
2022-10-09T08:32:49.487Z,70.89
2022-10-09T08:33:49.442Z,69.28
2022-10-09T08:34:49.637Z,70.09
2022-10-09T08:35:49.949Z,69.28
2022-10-09T08:36:50.282Z,69.24
2022-10-09T08:37:50.651Z,69.15
2022-10-09T08:38:50.887Z,69.45
2022-10-09T08:39:51.141Z,68.44
2022-10-09T08:40:53.841Z,69.15
2022-10-09T08:41:52.685Z,68.87
2022-10-09T08:42:52.334Z,68.57
2022-10-09T08:43:52.235Z,69.55
2022-10-09T08:44:52.659Z,68.33
2022-10-09T08:45:52.867Z,68.04
2022-10-09T08:46:53.241Z,68.87
2022-10-09T08:47:53.523Z,68.57
2022-10-09T08:48:53.726Z,69.08
2022-10-09T08:49:54.079Z,68.98
2022-10-09T08:50:54.279Z,68.54
2022-10-09T08:51:54.596Z,68.74
2022-10-09T08:52:55.253Z,69.04
2022-10-09T08:53:55.179Z,69.01
2022-10-09T08:54:55.527Z,67.90
2022-10-09T08:55:55.762Z,68.61
2022-10-09T08:56:55.959Z,67.80
2022-10-09T08:57:56.281Z,68.21
2022-10-09T08:58:56.641Z,68.71
2022-10-09T08:59:56.850Z,68.81
2022-10-09T09:00:57.167Z,69.72
2022-10-09T09:01:57.509Z,67.90
2022-10-09T09:02:57.785Z,68.01
2022-10-09T09:03:58.002Z,68.37
2022-10-09T09:04:58.451Z,67.77
2022-10-09T09:05:58.649Z,67.97
2022-10-09T09:06:58.979Z,67.16
2022-10-09T09:07:59.334Z,67.07
2022-10-09T09:08:59.531Z,66.46
2022-10-09T09:09:59.848Z,66.76
2022-10-09T09:11:00.180Z,67.16
2022-10-09T09:12:00.500Z,66.96
2022-10-09T09:13:00.879Z,67.43
2022-10-09T09:14:01.094Z,66.73
2022-10-09T09:15:01.307Z,66.30
2022-10-09T09:16:01.699Z,66.19
2022-10-09T09:17:02.750Z,65.79
2022-10-09T09:18:02.299Z,65.69
2022-10-09T09:19:02.502Z,66.30
2022-10-09T09:20:02.812Z,66.67
2022-10-09T09:21:03.169Z,65.26
2022-10-09T09:22:03.348Z,66.13
2022-10-09T09:23:03.665Z,65.19
2022-10-09T09:24:03.974Z,64.19
2022-10-09T09:25:04.278Z,64.49
2022-10-09T09:26:04.622Z,63.99
2022-10-09T09:27:04.920Z,64.19
2022-10-09T09:28:08.769Z,64.59
2022-10-09T09:29:06.543Z,63.76
2022-10-09T09:30:05.813Z,63.02
2022-10-09T09:31:06.215Z,63.09
2022-10-09T09:32:06.428Z,62.76
2022-10-09T09:33:06.742Z,62.06
2022-10-09T09:34:07.052Z,61.02
2022-10-09T09:35:07.363Z,60.80
2022-10-09T09:36:07.694Z,59.33
2022-10-09T09:37:08.032Z,58.07
2022-10-09T09:38:08.351Z,57.78
2022-10-09T09:40:40.520Z,55.34
2022-10-09T09:41:10.375Z,54.41
2022-10-09T09:42:09.695Z,53.22
2022-10-09T09:43:09.883Z,53.19
2022-10-09T09:44:10.208Z,53.89
2022-10-09T09:45:10.567Z,53.69
2022-10-09T09:46:10.910Z,53.61
2022-10-09T09:47:11.154Z,53.19
2022-10-09T09:48:11.353Z,53.09
2022-10-09T09:49:11.665Z,53.31
2022-10-09T09:50:28.486Z,54.04
2022-10-09T09:51:28.006Z,54.06
2022-10-09T09:52:13.543Z,54.74
2022-10-09T09:53:12.798Z,54.22
2022-10-09T09:54:13.133Z,53.89
2022-10-09T09:55:13.344Z,54.11
2022-10-09T09:56:13.654Z,54.67
2022-10-09T09:57:18.189Z,55.49
2022-10-09T09:58:15.315Z,55.94
2022-10-09T09:59:14.617Z,57.30
2022-10-09T10:00:14.791Z,57.63
2022-10-09T10:01:15.170Z,58.36
2022-10-09T10:02:15.503Z,59.29
2022-10-09T10:03:16.423Z,59.86
2022-10-09T10:04:15.962Z,61.10
2022-10-09T10:05:16.186Z,60.60
2022-10-09T10:06:16.478Z,60.49
2022-10-09T10:07:16.807Z,61.63
2022-10-09T10:08:17.112Z,62.73
2022-10-09T10:09:17.470Z,61.18
2022-10-09T10:10:22.433Z,62.89
2022-10-09T10:11:19.020Z,62.42
2022-10-09T10:12:18.307Z,63.42
2022-10-09T10:13:18.503Z,62.45
2022-10-09T10:14:18.725Z,63.82
2022-10-09T10:15:19.033Z,64.62
2022-10-09T10:16:19.442Z,65.73
2022-10-09T10:17:23.513Z,65.76
2022-10-09T10:18:19.986Z,65.26
2022-10-09T10:19:20.334Z,65.59
2022-10-09T10:20:20.524Z,65.69
2022-10-09T10:21:20.880Z,66.80
2022-10-09T10:22:21.064Z,66.19
2022-10-09T10:23:21.374Z,66.60
2022-10-09T10:24:21.736Z,66.60
2022-10-09T10:25:21.950Z,66.93
2022-10-09T10:26:24.097Z,66.93
2022-10-09T10:27:22.519Z,67.23
2022-10-09T10:28:24.753Z,68.04
2022-10-09T10:29:22.998Z,68.24
2022-10-09T10:30:23.184Z,67.94
2022-10-09T10:31:23.540Z,68.34
2022-10-09T10:32:27.946Z,67.94
2022-10-09T10:33:24.095Z,68.14
2022-10-09T10:34:24.408Z,67.54
2022-10-09T10:35:24.778Z,68.27
2022-10-09T10:36:24.971Z,67.67
2022-10-09T10:37:25.295Z,68.17
2022-10-09T10:38:25.625Z,69.79
2022-10-09T10:39:25.846Z,69.28
2022-10-09T10:40:26.155Z,69.28
2022-10-09T10:41:26.470Z,69.38
2022-10-09T10:42:26.773Z,69.89
2022-10-09T10:43:27.157Z,69.79
2022-10-09T10:44:27.364Z,69.28
2022-10-09T10:45:27.693Z,68.68
2022-10-09T10:46:28.027Z,68.57
2022-10-09T10:47:28.346Z,69.38
2022-10-09T10:48:28.706Z,69.79
2022-10-09T10:49:33.661Z,69.68
2022-10-09T10:50:29.278Z,70.29
2022-10-09T10:51:29.469Z,70.49
2022-10-09T10:52:29.793Z,70.39
2022-10-09T10:53:30.107Z,69.89
2022-10-09T10:54:30.455Z,71.20
2022-10-09T10:55:30.776Z,70.83
2022-10-09T10:56:31.100Z,70.12
2022-10-09T10:57:31.467Z,69.62
2022-10-09T10:58:31.655Z,70.32
2022-10-09T10:59:31.990Z,70.53
2022-10-09T11:00:32.308Z,70.73
2022-10-09T11:01:32.657Z,70.86
2022-10-09T11:02:33.155Z,71.67
2022-10-09T11:03:33.182Z,70.96
2022-10-09T11:04:33.409Z,70.46
2022-10-09T11:05:33.734Z,70.66
2022-10-09T11:06:34.065Z,70.39
2022-10-09T11:07:34.367Z,70.79
2022-10-09T11:08:34.707Z,71.47
2022-10-09T11:09:34.903Z,70.76
2022-10-09T11:10:35.223Z,70.66
2022-10-09T11:11:35.607Z,71.17
2022-10-09T11:12:57.861Z,71.57
2022-10-09T11:13:37.121Z,72.07
2022-10-09T11:14:36.356Z,72.27
2022-10-09T11:15:36.684Z,71.77
2022-10-09T11:16:37.117Z,72.78
2022-10-09T11:17:37.222Z,72.17
2022-10-09T11:18:37.530Z,71.97
2022-10-09T11:19:41.728Z,71.67
2022-10-09T11:20:39.160Z,71.97
2022-10-09T11:21:38.418Z,72.75
2022-10-09T11:22:38.745Z,72.04
2022-10-09T11:23:39.113Z,72.24
2022-10-09T11:24:39.327Z,71.84
2022-10-09T11:25:39.646Z,71.84
2022-10-09T11:26:39.947Z,71.94
2022-10-09T11:27:40.267Z,70.73
2022-10-09T11:28:40.650Z,70.53
2022-10-09T11:29:40.920Z,70.53
2022-10-09T11:30:41.127Z,71.03
2022-10-09T11:31:41.458Z,70.93
2022-10-09T11:33:41.947Z,70.83
2022-10-09T11:34:44.106Z,71.10
2022-10-09T11:35:42.522Z,71.80
2022-10-09T11:36:42.835Z,71.44
2022-10-09T11:37:43.182Z,71.13
2022-10-09T11:38:43.503Z,72.14
2022-10-09T11:39:43.832Z,71.73
2022-10-09T11:40:44.059Z,72.04
2022-10-09T11:41:44.282Z,72.64
2022-10-09T11:42:44.524Z,71.33
2022-10-09T11:43:44.711Z,70.53
2022-10-09T11:44:45.010Z,71.03
2022-10-09T11:45:45.404Z,71.44
2022-10-09T11:46:45.613Z,72.07
2022-10-09T11:47:45.946Z,71.17
2022-10-09T11:48:46.229Z,71.03
2022-10-09T11:49:46.429Z,71.03
2022-10-09T11:50:46.741Z,71.13
2022-10-09T11:51:47.051Z,71.53
2022-10-09T11:52:47.389Z,71.13
2022-10-09T11:53:47.728Z,71.73
2022-10-09T11:54:47.950Z,71.64
2022-10-09T11:55:48.134Z,71.73
2022-10-09T11:56:48.487Z,72.34
2022-10-09T11:57:48.993Z,72.54
2022-10-09T11:58:49.009Z,72.54
2022-10-09T11:59:49.332Z,72.14
2022-10-09T12:00:49.691Z,72.75
2022-10-09T12:01:49.923Z,72.38
2022-10-09T12:02:50.229Z,72.38
2022-10-09T12:03:50.557Z,72.98
2022-10-09T12:04:54.792Z,73.38
2022-10-09T12:05:51.179Z,72.85
2022-10-09T12:06:51.533Z,72.04
2022-10-09T12:07:55.569Z,71.84
2022-10-09T12:08:52.061Z,71.94
2022-10-09T12:09:52.353Z,71.94
2022-10-09T12:10:52.662Z,72.44
2022-10-09T12:11:53.016Z,72.04
2022-10-09T12:12:53.204Z,72.44
2022-10-09T12:13:53.498Z,72.54
2022-10-09T12:14:53.820Z,72.75
2022-10-09T12:15:57.924Z,72.14
2022-10-09T12:16:54.519Z,72.20
2022-10-09T12:17:54.662Z,72.51
2022-10-09T12:18:54.995Z,72.71
2022-10-09T12:20:00.088Z,72.71
2022-10-09T12:21:01.073Z,72.20
2022-10-09T12:21:55.886Z,72.41
2022-10-09T12:23:14.218Z,71.40
2022-10-09T12:23:57.521Z,71.91
2022-10-09T12:24:56.776Z,71.50
2022-10-09T12:25:57.090Z,71.50
2022-10-09T12:26:57.418Z,71.30
2022-10-09T12:27:57.746Z,71.60
2022-10-09T12:28:57.965Z,71.03
2022-10-09T12:29:58.275Z,71.03
2022-10-09T12:31:02.732Z,72.34
2022-10-09T12:31:58.934Z,72.75
2022-10-09T12:32:59.129Z,73.25
2022-10-09T12:33:59.433Z,72.95
2022-10-09T12:34:59.722Z,72.54
2022-10-09T12:36:00.004Z,73.15
2022-10-09T12:37:00.330Z,73.42
2022-10-09T12:38:00.701Z,72.61
2022-10-09T12:39:00.870Z,73.01
2022-10-09T12:40:01.175Z,72.71
2022-10-09T12:41:01.494Z,72.81
2022-10-09T12:42:01.863Z,72.31
2022-10-09T12:43:02.049Z,71.70
2022-10-09T12:44:02.363Z,71.80
2022-10-09T12:45:02.677Z,71.91
2022-10-09T12:46:03.058Z,72.41
2022-10-09T12:47:03.329Z,71.91
2022-10-09T12:48:03.643Z,72.11
2022-10-09T12:49:03.946Z,71.70
2022-10-09T12:50:04.270Z,71.91
2022-10-09T12:51:04.592Z,72.07
2022-10-09T12:52:04.932Z,72.07
2022-10-09T12:53:05.131Z,72.17
2022-10-09T12:54:05.439Z,71.57
2022-10-09T12:55:05.764Z,71.10
2022-10-09T12:56:06.071Z,71.47
2022-10-09T12:57:06.411Z,71.17
2022-10-09T12:58:06.594Z,70.56
2022-10-09T12:59:06.938Z,70.26
2022-10-09T13:00:07.180Z,71.26
2022-10-09T13:01:07.636Z,71.47
2022-10-09T13:02:07.955Z,71.37
2022-10-09T13:03:08.040Z,71.67
2022-10-09T13:04:08.400Z,71.44
2022-10-09T13:05:08.567Z,70.83
2022-10-09T13:06:08.851Z,70.83
2022-10-09T13:07:09.134Z,70.83
2022-10-09T13:08:09.463Z,70.73
2022-10-09T13:09:09.807Z,70.73
2022-10-09T13:10:10.025Z,70.83
2022-10-09T13:11:10.328Z,70.42
2022-10-09T13:12:10.631Z,70.83
2022-10-09T13:13:10.922Z,70.12
2022-10-09T13:14:11.257Z,69.82
2022-10-09T13:15:13.228Z,68.71
2022-10-09T13:16:11.766Z,68.41
2022-10-09T13:17:12.075Z,69.82
2022-10-09T13:18:12.383Z,68.61
2022-10-09T13:19:12.722Z,69.85
2022-10-09T13:20:12.932Z,69.45
2022-10-09T13:21:13.233Z,70.36
2022-10-09T13:22:13.522Z,69.95
2022-10-09T13:23:13.816Z,71.06
2022-10-09T13:24:14.126Z,71.77
2022-10-09T13:25:14.477Z,71.87
2022-10-09T13:26:15.764Z,72.07
2022-10-09T13:27:15.023Z,70.76
2022-10-09T13:28:15.368Z,71.20
2022-10-09T13:29:15.546Z,71.80
2022-10-09T13:30:15.861Z,72.11
2022-10-09T13:31:16.249Z,71.20
2022-10-09T13:32:16.457Z,71.50
2022-10-09T13:33:16.761Z,71.30
2022-10-09T13:34:17.073Z,72.41
2022-10-09T13:35:17.447Z,71.91
2022-10-09T13:36:17.691Z,72.81
2022-10-09T13:37:17.863Z,73.05
2022-10-09T13:38:18.233Z,73.32
2022-10-09T13:39:19.165Z,73.62
2022-10-09T13:40:18.729Z,73.52
2022-10-09T13:41:18.923Z,72.71
2022-10-09T13:42:19.229Z,72.51
2022-10-09T13:43:21.404Z,72.71
2022-10-09T13:44:19.818Z,72.91
2022-10-09T13:45:20.126Z,72.51
2022-10-09T13:46:20.486Z,72.51
2022-10-09T13:47:24.571Z,73.11
2022-10-09T13:48:21.083Z,72.91
2022-10-09T13:49:22.020Z,72.31
2022-10-09T13:50:21.532Z,72.11
2022-10-09T13:51:21.846Z,71.60
2022-10-09T13:52:22.168Z,71.60
2022-10-09T13:53:22.464Z,72.41
2022-10-09T13:54:22.657Z,73.32
2022-10-09T13:55:26.805Z,73.72
2022-10-09T13:56:23.296Z,73.22
2022-10-09T13:57:23.614Z,73.11
2022-10-09T13:58:23.951Z,72.81
2022-10-09T13:59:24.130Z,71.60
2022-10-09T14:00:24.442Z,72.41
2022-10-09T14:01:24.775Z,72.81
2022-10-09T14:02:25.035Z,72.91
2022-10-09T14:03:29.177Z,72.81
2022-10-09T14:04:25.572Z,73.32
2022-10-09T14:05:25.881Z,72.91
2022-10-09T14:06:26.204Z,72.41
2022-10-09T14:07:26.564Z,72.61
2022-10-09T14:08:26.756Z,72.44
2022-10-09T14:09:27.082Z,72.85
2022-10-09T14:10:27.398Z,73.25
2022-10-09T14:11:27.696Z,73.05
2022-10-09T14:12:32.108Z,73.45
2022-10-09T14:13:28.228Z,72.75
2022-10-09T14:14:28.554Z,73.15
2022-10-09T14:15:28.862Z,72.75
2022-10-09T14:16:29.174Z,73.45
2022-10-09T14:17:29.483Z,73.35
2022-10-09T14:18:29.786Z,73.55
2022-10-09T14:19:30.131Z,73.45
2022-10-09T14:20:30.308Z,73.96
2022-10-09T14:21:30.606Z,73.55
2022-10-09T14:22:30.933Z,73.45
2022-10-09T14:23:31.230Z,73.96
2022-10-09T14:24:31.585Z,73.55
2022-10-09T14:25:31.760Z,73.65
2022-10-09T14:26:32.074Z,72.85
2022-10-09T14:27:32.421Z,73.35
2022-10-09T14:28:32.719Z,73.45
2022-10-09T14:29:32.926Z,73.35
2022-10-09T14:30:33.274Z,73.96
2022-10-09T14:31:33.467Z,73.75
2022-10-09T14:32:33.795Z,73.45
2022-10-09T14:33:34.140Z,73.25
2022-10-09T14:34:34.321Z,73.85
2022-10-09T14:35:34.610Z,73.75
2022-10-09T14:36:34.925Z,73.65
2022-10-09T14:37:42.652Z,73.75
2022-10-09T14:38:36.554Z,73.75
2022-10-09T14:39:35.796Z,73.96
2022-10-09T14:40:36.102Z,74.26
2022-10-09T14:41:37.973Z,74.05
2022-10-09T14:42:36.725Z,74.26
2022-10-09T14:43:36.917Z,74.76
2022-10-09T14:44:37.267Z,73.96
2022-10-09T14:45:37.465Z,74.05
2022-10-09T14:46:41.588Z,74.80
2022-10-09T14:47:38.061Z,75.60
2022-10-09T14:48:38.420Z,76.18
2022-10-09T14:49:38.590Z,74.90
2022-10-09T14:50:38.883Z,75.91
2022-10-09T14:51:43.033Z,75.10
2022-10-09T14:52:39.584Z,74.49
2022-10-09T14:53:39.828Z,75.31
2022-10-09T14:54:40.074Z,75.00
2022-10-09T14:55:40.317Z,74.90
2022-10-09T14:56:40.623Z,75.51
2022-10-09T14:57:40.926Z,75.20
2022-10-09T14:58:41.235Z,75.00
2022-10-09T14:59:41.549Z,75.60
2022-10-09T15:00:41.893Z,76.42
2022-10-09T15:01:42.125Z,76.92